Southampton Township, New Jersey
Current Conditions -  °F | °C
As of 11:54 AM on Thursday 23 Oct 2014 (Local Time) from KVAY Reporting Station
Light Rain Light Rain  
Wind Chill: 52°   Ceiling: 1900
Heat Index: 52°   Visibility: 6mi
Dew Point: 47°   Wind: 13mph
Humidity: 83%   Direction: 300°WNW
Pressure: 29.76"   Gusts: 22mph
Location:  39.7955°N, 74.6301°W
Report Text: KVAY 231554Z AUTO 30011G19KT 6SM -RA BKN019 OVC025 11/08 A2976 RMK AO2 RAE00B29 SLP076 P0001 T01110083
Loading
Personal Weather Stations






























Interactive Weather Map
Tropical Storm Tracking
New forecast layout! Learn more

10-Day Weather Forecast

Advertisements
Track Severe Weather on mobile